Time;durP1;ratioP1;P1;durP2;ratioP2;P2;SDS_P1;SDS_P2;PMS_P1;PMS_P2;Temp;Humidity;BMP_temperature;BMP_pressure;BME280_temperature;BME280_humidity;BME280_pressure;Samples;Min_cycle;Max_cycle;Signal;HPM_P1;HPM_P2
2022/05/20 00:00:23;;;;;;;0.98;0.63;;;21.50;51.70;;;;;;6245152;28;20570;-68
2022/05/20 00:03:23;;;;;;;0.40;0.40;;;21.40;51.60;;;;;;6243564;28;20052;-69
2022/05/20 00:06:24;;;;;;;0.90;0.70;;;21.50;51.70;;;;;;6244464;28;20036;-69
2022/05/20 00:09:24;;;;;;;0.77;0.60;;;21.50;51.70;;;;;;6243688;28;20104;-69
2022/05/20 00:12:25;;;;;;;0.50;0.50;;;21.50;51.70;;;;;;6243922;28;20040;-69
2022/05/20 00:15:28;;;;;;;0.75;0.60;;;21.50;51.70;;;;;;6243913;28;20026;-69
2022/05/20 00:18:28;;;;;;;0.50;0.50;;;21.50;51.70;;;;;;6244122;28;20049;-69
2022/05/20 00:21:30;;;;;;;0.70;0.60;;;21.50;51.70;;;;;;6242190;28;20074;-69
2022/05/20 00:24:31;;;;;;;0.90;0.70;;;21.50;51.70;;;;;;6243679;28;20037;-69
2022/05/20 00:27:32;;;;;;;0.60;0.57;;;21.50;51.70;;;;;;6244014;28;20033;-69
2022/05/20 00:30:34;;;;;;;0.60;0.60;;;21.40;51.60;;;;;;6243505;28;20029;-68
2022/05/20 00:33:37;;;;;;;0.60;0.60;;;21.50;51.70;;;;;;6243601;28;20022;-69
2022/05/20 00:36:38;;;;;;;0.73;0.60;;;21.50;51.70;;;;;;6243256;28;20021;-69
2022/05/20 00:39:38;;;;;;;0.70;0.60;;;21.50;51.70;;;;;;6243648;28;20030;-70
2022/05/20 00:42:40;;;;;;;0.77;0.50;;;21.50;51.70;;;;;;6243388;28;20033;-69
2022/05/20 00:45:42;;;;;;;0.55;0.52;;;21.50;51.70;;;;;;6243666;28;20576;-69
2022/05/20 00:48:44;;;;;;;0.60;0.60;;;21.40;51.70;;;;;;6243412;28;20068;-69
2022/05/20 00:51:53;;;;;;;0.50;0.50;;;21.40;51.60;;;;;;6243510;28;20538;-69
2022/05/20 00:55:00;;;;;;;0.52;0.52;;;21.50;51.70;;;;;;6243388;28;20060;-69
2022/05/20 00:58:08;;;;;;;0.98;0.60;;;21.40;51.60;;;;;;6225842;28;20450;-69
2022/05/20 01:01:08;;;;;;;0.60;0.52;;;21.50;51.70;;;;;;6241936;28;20033;-69
2022/05/20 01:04:09;;;;;;;0.50;0.50;;;21.50;51.70;;;;;;6243392;28;20080;-69
2022/05/20 01:07:10;;;;;;;0.60;0.55;;;21.50;51.70;;;;;;6243033;28;20038;-69
2022/05/20 01:10:11;;;;;;;0.80;0.60;;;21.50;51.70;;;;;;6243021;28;20123;-69
2022/05/20 01:13:15;;;;;;;0.60;0.50;;;21.50;51.70;;;;;;6243231;28;20646;-69
2022/05/20 01:16:17;;;;;;;0.70;0.60;;;21.50;51.70;;;;;;6243237;28;20096;-69
2022/05/20 01:19:32;;;;;;;0.30;0.30;;;21.50;51.70;;;;;;6243357;28;20543;-69
2022/05/20 01:23:11;;;;;;;0.55;0.50;;;21.50;51.70;;;;;;6242959;28;20032;-69
2022/05/20 01:26:12;;;;;;;0.75;0.65;;;21.40;51.60;;;;;;6225151;28;20057;-69
2022/05/20 01:29:12;;;;;;;0.55;0.55;;;21.50;51.70;;;;;;6241822;28;20024;-69
2022/05/20 01:32:13;;;;;;;0.50;0.50;;;21.50;51.70;;;;;;6242576;28;20022;-69
2022/05/20 01:35:40;;;;;;;0.30;0.30;;;21.50;51.70;;;;;;6246976;28;20139;-69
2022/05/20 01:38:41;;;;;;;0.80;0.60;;;21.50;51.70;;;;;;6247657;28;20516;-69
2022/05/20 01:42:03;;;;;;;0.55;0.55;;;21.50;51.70;;;;;;6245761;28;20021;-69
2022/05/20 01:45:12;;;;;;;1.55;0.50;;;21.50;51.70;;;;;;6247205;28;20028;-69
2022/05/20 01:48:29;;;;;;;0.82;0.70;;;21.50;51.70;;;;;;6247705;28;20032;-69
2022/05/20 01:51:37;;;;;;;0.50;0.40;;;21.50;51.70;;;;;;6246928;28;20041;-69
2022/05/20 01:55:10;;;;;;;0.55;0.45;;;21.50;51.80;;;;;;6247185;28;20079;-69
2022/05/20 01:58:25;;;;;;;0.40;0.38;;;21.50;51.80;;;;;;6247321;28;20017;-69
2022/05/20 02:01:38;;;;;;;0.70;0.53;;;21.40;51.70;;;;;;6229518;28;20026;-69
2022/05/20 02:04:47;;;;;;;0.80;0.63;;;21.40;51.70;;;;;;6246832;28;20635;-69
2022/05/20 02:07:53;;;;;;;0.40;0.40;;;21.50;51.70;;;;;;6247054;28;20021;-68
2022/05/20 02:11:02;;;;;;;0.40;0.40;;;21.50;51.70;;;;;;6246576;28;20390;-69
2022/05/20 02:14:35;;;;;;;0.50;0.50;;;21.50;51.80;;;;;;6246708;28;20079;-69
2022/05/20 02:17:38;;;;;;;0.60;0.50;;;21.50;51.80;;;;;;6229130;28;20439;-69
2022/05/20 02:20:48;;;;;;;0.40;0.40;;;21.50;51.80;;;;;;6228980;28;20018;-69
2022/05/20 02:23:54;;;;;;;0.55;0.50;;;21.40;51.70;;;;;;6246224;28;20026;-69
2022/05/20 02:27:02;;;;;;;0.45;0.45;;;21.50;51.80;;;;;;6246612;28;20037;-69
2022/05/20 02:30:09;;;;;;;0.63;0.52;;;21.40;51.70;;;;;;6245168;28;20075;-69
2022/05/20 02:33:20;;;;;;;0.70;0.65;;;21.50;51.80;;;;;;6246260;28;20413;-69
2022/05/20 02:36:34;;;;;;;1.08;0.60;;;21.50;51.80;;;;;;6246286;28;20484;-69
2022/05/20 02:39:35;;;;;;;0.50;0.50;;;21.40;51.70;;;;;;6246204;28;20082;-69
2022/05/20 02:42:36;;;;;;;0.75;0.60;;;21.40;51.80;;;;;;6245128;28;20429;-70
2022/05/20 02:45:38;;;;;;;0.88;0.60;;;21.50;51.80;;;;;;6245205;28;20091;-70
2022/05/20 02:48:39;;;;;;;0.50;0.50;;;21.50;51.80;;;;;;6246477;28;20677;-69
2022/05/20 02:51:40;;;;;;;0.95;0.60;;;21.50;51.80;;;;;;6243951;28;20037;-69
2022/05/20 02:54:40;;;;;;;0.55;0.47;;;21.40;51.80;;;;;;6225848;28;20030;-69
2022/05/20 02:57:42;;;;;;;0.50;0.50;;;21.40;51.70;;;;;;6227862;28;20087;-69
2022/05/20 03:04:13;;;;;;;0.50;0.50;;;21.40;51.80;;;;;;6191605;28;20038;-69
2022/05/20 03:07:14;;;;;;;0.43;0.40;;;21.40;51.80;;;;;;6245667;28;20546;-69
2022/05/20 03:10:15;;;;;;;1.00;0.60;;;21.50;51.80;;;;;;6227605;28;20072;-69
2022/05/20 03:13:16;;;;;;;0.50;0.50;;;21.50;51.90;;;;;;6245512;28;20086;-69
2022/05/20 03:16:17;;;;;;;0.40;0.40;;;21.50;51.80;;;;;;6245419;28;20028;-69
2022/05/20 03:19:19;;;;;;;0.50;0.50;;;21.40;51.80;;;;;;6245480;28;20411;-69
2022/05/20 03:22:20;;;;;;;0.40;0.40;;;21.50;51.80;;;;;;6245325;28;20033;-69
2022/05/20 03:25:21;;;;;;;0.50;0.50;;;21.50;51.90;;;;;;6245100;28;20520;-69
2022/05/20 03:28:21;;;;;;;0.40;0.40;;;21.40;51.70;;;;;;6245048;28;20021;-69
2022/05/20 03:31:22;;;;;;;0.40;0.40;;;21.50;51.90;;;;;;6244933;28;20036;-69
2022/05/20 03:34:22;;;;;;;0.30;0.30;;;21.40;51.80;;;;;;6243810;28;20017;-69
2022/05/20 03:37:24;;;;;;;0.50;0.50;;;21.50;51.80;;;;;;6245004;28;20026;-69
2022/05/20 03:40:24;;;;;;;0.68;0.60;;;21.50;51.80;;;;;;6227036;28;20028;-69
2022/05/20 03:43:26;;;;;;;0.52;0.47;;;21.50;51.80;;;;;;6243395;28;20059;-69
2022/05/20 03:46:26;;;;;;;1.15;0.75;;;21.50;51.90;;;;;;6243170;28;20057;-69
2022/05/20 03:49:28;;;;;;;0.65;0.65;;;21.50;51.90;;;;;;6243368;28;20024;-69
2022/05/20 03:52:29;;;;;;;0.50;0.50;;;21.50;51.90;;;;;;6244597;28;20080;-69
2022/05/20 03:55:30;;;;;;;0.40;0.40;;;21.50;51.90;;;;;;6244167;28;20025;-69
2022/05/20 03:58:30;;;;;;;0.77;0.50;;;21.40;51.80;;;;;;6225195;28;20029;-69
2022/05/20 04:04:52;;;;;;;0.52;0.50;;;21.50;51.90;;;;;;6244061;28;20033;-69
2022/05/20 04:07:53;;;;;;;0.50;0.50;;;21.50;51.90;;;;;;6226472;28;20026;-69
2022/05/20 04:10:54;;;;;;;0.60;0.50;;;21.50;51.90;;;;;;6243801;28;20076;-69
2022/05/20 04:13:54;;;;;;;0.90;0.70;;;21.40;51.80;;;;;;6244037;28;20013;-70
2022/05/20 04:16:57;;;;;;;0.50;0.40;;;21.50;51.90;;;;;;6226322;28;20022;-71
2022/05/20 04:19:58;;;;;;;0.50;0.50;;;21.40;51.80;;;;;;6243014;28;20040;-69
2022/05/20 04:22:58;;;;;;;0.40;0.40;;;21.50;51.90;;;;;;6242906;28;20665;-69
2022/05/20 04:25:59;;;;;;;0.50;0.50;;;21.50;51.90;;;;;;6243913;28;20029;-69
2022/05/20 04:29:00;;;;;;;1.25;0.60;;;21.40;51.80;;;;;;6243874;28;20025;-69
2022/05/20 04:32:01;;;;;;;0.65;0.60;;;21.40;51.80;;;;;;6243547;28;20063;-70
2022/05/20 04:35:01;;;;;;;0.70;0.50;;;21.40;51.80;;;;;;6242817;28;20025;-68
2022/05/20 04:38:02;;;;;;;0.52;0.52;;;21.50;51.90;;;;;;6244172;28;20026;-68
2022/05/20 04:47:42;;;;;;;1.00;0.60;;;21.40;51.80;;;;;;6243938;28;20105;-68
2022/05/20 04:50:42;;;;;;;0.60;0.60;;;21.50;51.90;;;;;;6244145;28;20036;-68
2022/05/20 04:57:03;;;;;;;0.43;0.43;;;21.40;51.90;;;;;;6238027;28;20025;-68
2022/05/20 05:00:41;;;;;;;0.85;0.60;;;21.40;51.80;;;;;;6243363;28;20075;-68
2022/05/20 05:03:41;;;;;;;0.50;0.50;;;21.40;51.80;;;;;;6243300;28;20030;-68
2022/05/20 05:06:42;;;;;;;0.57;0.55;;;21.50;52.60;;;;;;6260011;28;20489;-68
2022/05/20 05:09:44;;;;;;;0.63;0.60;;;21.50;51.90;;;;;;6243789;28;20103;-67
2022/05/20 05:12:45;;;;;;;0.43;0.43;;;21.40;51.90;;;;;;6224040;28;20381;-68
2022/05/20 05:15:45;;;;;;;0.50;0.50;;;21.40;51.80;;;;;;6238107;28;20037;-67
2022/05/20 05:18:47;;;;;;;0.68;0.60;;;21.50;52.00;;;;;;6251687;28;20680;-68
2022/05/20 05:21:47;;;;;;;0.68;0.60;;;21.40;51.80;;;;;;6243618;28;20379;-68
2022/05/20 05:24:48;;;;;;;0.57;0.55;;;21.40;51.90;;;;;;6247944;28;20033;-68
2022/05/20 05:27:49;;;;;;;1.70;0.70;;;21.40;51.90;;;;;;6247205;28;20052;-69
2022/05/20 05:30:51;;;;;;;0.70;0.68;;;21.40;51.80;;;;;;6235576;28;20608;-69
2022/05/20 05:33:53;;;;;;;0.60;0.60;;;21.40;51.80;;;;;;6246639;28;20022;-69
2022/05/20 05:36:53;;;;;;;0.68;0.60;;;21.40;51.80;;;;;;6217680;28;20495;-69
2022/05/20 05:39:54;;;;;;;0.60;0.60;;;21.40;51.90;;;;;;6246105;28;20065;-69
2022/05/20 05:42:56;;;;;;;0.63;0.60;;;21.40;51.90;;;;;;6246673;28;20043;-68
2022/05/20 05:45:57;;;;;;;0.63;0.63;;;21.40;51.90;;;;;;6235481;28;20029;-68
2022/05/20 05:48:59;;;;;;;0.60;0.60;;;21.40;51.90;;;;;;6245226;28;20490;-69
2022/05/20 05:52:00;;;;;;;0.70;0.60;;;21.50;52.00;;;;;;6223310;28;20467;-69
2022/05/20 05:55:03;;;;;;;0.90;0.60;;;21.40;51.90;;;;;;6235763;28;20032;-69
2022/05/20 05:58:04;;;;;;;0.50;0.50;;;21.40;51.90;;;;;;6249916;28;20014;-69
2022/05/20 06:01:05;;;;;;;0.95;0.70;;;21.40;51.90;;;;;;6230431;28;20041;-70
2022/05/20 06:04:06;;;;;;;0.60;0.60;;;21.40;51.90;;;;;;6231084;28;20037;-70
2022/05/20 06:07:07;;;;;;;0.63;0.60;;;21.40;51.90;;;;;;6230461;28;20026;-70
2022/05/20 06:10:08;;;;;;;0.57;0.57;;;21.50;52.00;;;;;;6236925;28;20068;-70
2022/05/20 06:13:09;;;;;;;0.60;0.50;;;21.40;51.90;;;;;;6248068;28;20515;-70
2022/05/20 06:16:10;;;;;;;0.77;0.68;;;21.40;51.90;;;;;;6247767;28;20025;-70
2022/05/20 06:19:11;;;;;;;0.60;0.60;;;21.40;51.90;;;;;;6246273;28;20564;-71
2022/05/20 06:22:11;;;;;;;0.70;0.70;;;21.40;51.90;;;;;;6240704;28;20030;-70
2022/05/20 06:25:13;;;;;;;0.60;0.60;;;21.40;51.90;;;;;;6222778;28;20681;-71
2022/05/20 06:28:16;;;;;;;0.90;0.70;;;21.40;51.90;;;;;;6223157;28;20022;-71
2022/05/20 06:31:16;;;;;;;0.80;0.73;;;21.50;52.00;;;;;;6221722;28;20034;-71
2022/05/20 06:34:17;;;;;;;0.70;0.70;;;21.40;51.90;;;;;;6222048;28;20022;-71
2022/05/20 06:40:46;;;;;;;0.70;0.70;;;21.50;52.00;;;;;;6222770;28;20034;-70
2022/05/20 06:43:46;;;;;;;0.80;0.80;;;21.40;51.90;;;;;;6221043;28;20125;-71
2022/05/20 06:46:47;;;;;;;0.60;0.60;;;21.40;51.90;;;;;;6228070;28;20036;-66
2022/05/20 06:49:47;;;;;;;0.93;0.88;;;21.40;51.90;;;;;;6246649;28;20112;-66
2022/05/20 06:52:48;;;;;;;0.75;0.70;;;21.40;51.90;;;;;;6235418;28;20029;-66
2022/05/20 06:55:48;;;;;;;0.80;0.70;;;21.40;51.90;;;;;;6221558;28;20022;-67
2022/05/20 06:58:50;;;;;;;0.65;0.60;;;21.50;52.00;;;;;;6221769;28;20022;-66
2022/05/20 07:01:52;;;;;;;0.88;0.60;;;21.50;52.00;;;;;;6221785;28;20026;-66
2022/05/20 07:04:53;;;;;;;1.40;0.80;;;21.40;51.90;;;;;;6220595;28;20033;-70
2022/05/20 07:07:53;;;;;;;0.80;0.80;;;21.50;52.00;;;;;;6220965;28;20037;-69
2022/05/20 07:10:54;;;;;;;1.40;0.80;;;21.50;52.00;;;;;;6237664;28;20049;-67
2022/05/20 07:13:56;;;;;;;0.73;0.73;;;21.50;52.00;;;;;;6246226;28;20590;-70
2022/05/20 07:16:57;;;;;;;1.10;0.68;;;21.40;52.00;;;;;;6245980;28;20025;-70
2022/05/20 07:19:57;;;;;;;1.02;0.90;;;21.40;51.90;;;;;;6228789;28;20156;-70
2022/05/20 07:22:58;;;;;;;0.77;0.70;;;21.40;52.00;;;;;;6238632;28;20056;-69
2022/05/20 07:26:00;;;;;;;0.65;0.60;;;21.40;52.00;;;;;;6254566;28;20037;-70
2022/05/20 07:29:01;;;;;;;0.68;0.68;;;21.40;51.90;;;;;;6245807;28;20100;-69
2022/05/20 07:32:02;;;;;;;0.60;0.60;;;21.40;52.00;;;;;;6245911;28;20025;-70
2022/05/20 07:35:03;;;;;;;1.00;0.90;;;21.40;51.90;;;;;;6227959;28;20805;-70
2022/05/20 07:38:06;;;;;;;0.93;0.85;;;21.40;51.90;;;;;;6244667;28;20053;-69
2022/05/20 07:41:07;;;;;;;1.00;0.70;;;21.40;52.00;;;;;;6244329;28;20030;-69
2022/05/20 07:44:08;;;;;;;0.88;0.77;;;21.50;52.10;;;;;;6245504;28;20392;-68
2022/05/20 07:47:09;;;;;;;0.70;0.70;;;21.50;52.00;;;;;;6245688;28;20056;-69
2022/05/20 07:50:10;;;;;;;0.70;0.70;;;21.40;52.00;;;;;;6245243;28;20035;-70
2022/05/20 07:53:20;;;;;;;0.68;0.68;;;21.40;52.00;;;;;;6245078;28;20515;-70
2022/05/20 07:56:25;;;;;;;0.90;0.80;;;21.50;52.10;;;;;;6245133;28;20033;-70
2022/05/20 07:59:30;;;;;;;0.70;0.70;;;21.40;52.00;;;;;;6244594;28;20029;-69
2022/05/20 08:02:31;;;;;;;0.70;0.68;;;21.40;52.00;;;;;;6245051;28;20030;-69
2022/05/20 08:05:33;;;;;;;0.98;0.88;;;21.40;52.00;;;;;;6238169;28;20373;-70
2022/05/20 08:08:34;;;;;;;0.75;0.70;;;21.50;52.10;;;;;;6227361;28;20029;-66
2022/05/20 08:11:35;;;;;;;0.70;0.70;;;21.40;52.00;;;;;;6244643;28;20048;-66
2022/05/20 08:14:35;;;;;;;1.35;1.00;;;21.40;51.90;;;;;;6244627;28;20029;-66
2022/05/20 08:17:40;;;;;;;1.05;0.80;;;21.40;52.00;;;;;;6245051;28;20477;-67
2022/05/20 08:20:40;;;;;;;0.83;0.77;;;21.40;52.00;;;;;;6244955;28;20076;-66
2022/05/20 08:23:44;;;;;;;0.70;0.70;;;21.40;52.00;;;;;;6244556;28;20033;-67
2022/05/20 08:26:44;;;;;;;1.10;0.93;;;21.40;52.00;;;;;;6245315;28;20419;-70
2022/05/20 08:29:45;;;;;;;0.75;0.70;;;21.40;52.00;;;;;;6227037;28;20033;-70
2022/05/20 08:32:46;;;;;;;1.30;0.88;;;21.40;52.00;;;;;;6244773;28;20040;-70
2022/05/20 08:35:47;;;;;;;0.60;0.60;;;21.40;52.00;;;;;;6244682;28;20032;-70
2022/05/20 08:38:48;;;;;;;0.75;0.70;;;21.40;52.00;;;;;;6243717;28;20024;-70
2022/05/20 08:41:53;;;;;;;0.70;0.70;;;21.50;52.10;;;;;;6244387;28;20021;-70
2022/05/20 08:44:53;;;;;;;1.00;0.90;;;21.40;52.00;;;;;;6226611;28;20669;-69
2022/05/20 08:47:54;;;;;;;0.90;0.80;;;21.40;52.00;;;;;;6244434;28;20050;-70
2022/05/20 08:50:57;;;;;;;0.77;0.77;;;21.40;52.00;;;;;;6227153;28;20395;-70
2022/05/20 08:53:57;;;;;;;1.17;1.00;;;21.40;52.00;;;;;;6225751;28;20052;-69
2022/05/20 08:57:17;;;;;;;0.80;0.80;;;21.40;52.10;;;;;;6243377;28;20020;-70
2022/05/20 09:00:19;;;;;;;1.17;0.98;;;21.50;52.00;;;;;;6226787;28;20403;-69
2022/05/20 09:03:22;;;;;;;0.98;0.65;;;21.50;52.00;;;;;;6244521;28;20038;-70
2022/05/20 09:06:24;;;;;;;0.75;0.75;;;21.60;52.10;;;;;;6244321;28;20429;-69
2022/05/20 09:09:48;;;;;;;1.65;0.90;;;21.60;52.00;;;;;;6244227;28;20042;-70
2022/05/20 09:12:48;;;;;;;1.15;0.90;;;21.60;52.10;;;;;;6226281;28;20025;-70
2022/05/20 09:16:05;;;;;;;0.93;0.82;;;21.50;52.10;;;;;;6252097;28;20021;-70
2022/05/20 09:19:11;;;;;;;1.20;1.10;;;21.50;52.10;;;;;;6256026;28;20087;-70
2022/05/20 09:22:14;;;;;;;0.98;0.88;;;21.50;52.10;;;;;;6226556;28;20083;-70
2022/05/20 09:25:26;;;;;;;1.25;0.80;;;21.50;52.10;;;;;;6244150;28;20026;-70
2022/05/20 09:28:52;;;;;;;0.77;0.70;;;21.50;52.10;;;;;;6248224;28;20025;-70
2022/05/20 09:32:00;;;;;;;1.00;0.90;;;21.50;52.10;;;;;;6268980;28;20033;-70
2022/05/20 09:35:13;;;;;;;1.08;0.80;;;21.50;52.10;;;;;;6251090;28;20483;-70
2022/05/20 09:38:46;;;;;;;0.80;0.80;;;21.50;52.10;;;;;;6250969;28;20111;-70
2022/05/20 09:41:51;;;;;;;1.00;0.90;;;21.50;52.10;;;;;;6245455;28;20119;-71
2022/05/20 09:44:58;;;;;;;0.80;0.80;;;21.40;52.00;;;;;;6246610;28;20057;-70
2022/05/20 09:47:59;;;;;;;0.98;0.88;;;21.40;52.00;;;;;;6243549;28;20021;-70
2022/05/20 09:51:12;;;;;;;1.10;0.90;;;21.50;52.10;;;;;;6243723;28;20033;-69
2022/05/20 09:54:23;;;;;;;1.27;0.98;;;21.50;52.10;;;;;;6243822;28;20017;-70
2022/05/20 09:57:36;;;;;;;0.90;0.80;;;21.50;52.10;;;;;;6235196;28;20027;-69
2022/05/20 10:00:41;;;;;;;0.88;0.80;;;21.50;52.10;;;;;;6273584;28;20021;-70
2022/05/20 10:03:48;;;;;;;0.75;0.75;;;21.50;52.10;;;;;;6255121;28;20123;-70
2022/05/20 10:06:54;;;;;;;1.08;0.98;;;21.40;52.00;;;;;;6256117;28;20029;-71
2022/05/20 10:10:03;;;;;;;0.93;0.88;;;21.50;52.10;;;;;;6241368;28;20080;-69
2022/05/20 10:13:07;;;;;;;1.33;1.13;;;21.50;52.10;;;;;;6248344;28;20026;-71
2022/05/20 10:16:50;;;;;;;0.87;0.80;;;21.50;52.10;;;;;;6247673;28;20028;-71
2022/05/20 10:20:06;;;;;;;0.80;0.75;;;21.40;52.10;;;;;;6254240;28;20073;-71
2022/05/20 10:23:29;;;;;;;0.73;0.73;;;21.50;52.10;;;;;;6255425;28;20124;-71
2022/05/20 10:26:45;;;;;;;1.00;0.80;;;21.50;52.10;;;;;;6239663;28;20191;-71
2022/05/20 10:33:17;;;;;;;1.25;1.05;;;21.50;52.10;;;;;;6248203;28;20766;-71
2022/05/20 10:36:52;;;;;;;0.85;0.80;;;21.50;52.10;;;;;;6247702;28;20032;-71
2022/05/20 10:40:28;;;;;;;0.90;0.90;;;21.50;52.10;;;;;;6230192;28;20120;-70
2022/05/20 10:51:01;;;;;;;1.08;0.98;;;21.40;52.00;;;;;;6272265;28;20029;-70
2022/05/20 10:54:28;;;;;;;1.23;0.90;;;21.50;52.30;;;;;;6272198;28;20032;-71
2022/05/20 10:57:43;;;;;;;1.35;0.95;;;21.50;52.10;;;;;;6240885;28;20030;-72
2022/05/20 11:00:52;;;;;;;2.93;1.07;;;21.50;52.10;;;;;;6247718;28;20108;-71
2022/05/20 11:04:11;;;;;;;1.63;1.00;;;21.40;52.10;;;;;;6229392;28;20052;-71
2022/05/20 11:07:43;;;;;;;2.20;1.30;;;21.50;52.10;;;;;;6247099;28;20109;-71
2022/05/20 11:11:19;;;;;;;1.75;1.05;;;21.50;52.10;;;;;;6271813;28;20106;-71
2022/05/20 11:14:35;;;;;;;1.10;0.98;;;21.50;52.10;;;;;;6271833;28;20392;-70
2022/05/20 11:17:49;;;;;;;0.93;0.85;;;21.50;52.10;;;;;;6250198;28;20369;-71
2022/05/20 11:21:09;;;;;;;1.23;0.90;;;21.50;52.10;;;;;;6221030;28;20038;-70
2022/05/20 11:24:43;;;;;;;1.58;1.00;;;21.40;52.10;;;;;;6221848;28;20030;-70
2022/05/20 11:28:05;;;;;;;1.30;1.00;;;21.50;52.20;;;;;;6221789;28;20026;-70
2022/05/20 11:31:29;;;;;;;2.22;1.00;;;21.40;52.10;;;;;;6221331;28;20120;-68
2022/05/20 11:34:49;;;;;;;1.15;1.05;;;21.50;52.10;;;;;;6221140;28;20025;-67
2022/05/20 11:37:52;;;;;;;1.00;0.82;;;21.50;52.10;;;;;;6221402;28;20014;-67
2022/05/20 11:41:14;;;;;;;1.10;1.00;;;21.50;52.10;;;;;;6221752;28;20084;-70
2022/05/20 11:44:36;;;;;;;2.42;0.90;;;21.50;52.10;;;;;;6203864;28;20026;-70
2022/05/20 11:48:04;;;;;;;1.27;0.90;;;21.50;52.20;;;;;;6216737;28;20030;-70
2022/05/20 11:51:32;;;;;;;3.90;0.85;;;21.40;52.10;;;;;;6245957;28;20028;-70
2022/05/20 11:54:47;;;;;;;0.90;0.90;;;21.50;52.10;;;;;;6221645;28;20105;-70
2022/05/20 11:58:01;;;;;;;1.05;0.95;;;21.50;52.10;;;;;;6219898;28;20542;-70
2022/05/20 12:01:06;;;;;;;1.05;0.95;;;21.50;52.20;;;;;;6213544;28;20373;-71
2022/05/20 12:04:07;;;;;;;1.42;0.98;;;21.40;52.10;;;;;;6246028;28;20038;-70
2022/05/20 12:07:13;;;;;;;1.45;0.90;;;21.50;52.10;;;;;;6245720;28;20079;-70
2022/05/20 12:10:16;;;;;;;1.15;0.90;;;21.40;52.10;;;;;;6227644;28;20439;-71
2022/05/20 12:13:21;;;;;;;0.85;0.80;;;21.40;52.10;;;;;;6227353;28;20044;-70
2022/05/20 12:16:22;;;;;;;1.30;0.80;;;21.40;52.10;;;;;;6227967;28;20026;-70
2022/05/20 12:26:51;;;;;;;1.00;0.90;;;21.40;52.10;;;;;;6245337;28;20026;-70
2022/05/20 12:30:06;;;;;;;1.00;0.90;;;21.40;52.10;;;;;;6230252;28;20029;-71
2022/05/20 12:33:23;;;;;;;1.40;1.05;;;21.40;52.10;;;;;;6225325;28;20025;-70
2022/05/20 12:36:27;;;;;;;1.00;0.90;;;21.50;52.40;;;;;;6226819;28;20049;-71
2022/05/20 12:39:49;;;;;;;5.88;0.93;;;21.50;52.20;;;;;;6231355;28;20020;-71
2022/05/20 12:43:08;;;;;;;1.17;0.98;;;21.60;52.20;;;;;;6252110;28;20435;-71
2022/05/20 12:46:17;;;;;;;2.70;0.95;;;21.70;52.10;;;;;;6268958;28;20361;-70
2022/05/20 12:49:20;;;;;;;1.55;0.95;;;21.90;52.10;;;;;;6251842;28;20527;-70
2022/05/20 12:52:23;;;;;;;1.67;0.98;;;21.90;52.20;;;;;;6270078;28;20431;-70
2022/05/20 12:55:33;;;;;;;1.13;1.00;;;21.90;52.20;;;;;;6252220;28;20495;-70
2022/05/20 12:58:35;;;;;;;2.58;1.00;;;21.90;52.10;;;;;;6244136;28;20506;-71
2022/05/20 13:01:35;;;;;;;1.33;1.10;;;21.90;52.10;;;;;;6243660;28;20417;-70
2022/05/20 13:04:43;;;;;;;1.40;1.00;;;21.90;52.10;;;;;;6243713;28;20041;-70
2022/05/20 13:07:45;;;;;;;4.40;1.20;;;21.90;52.10;;;;;;6245086;28;20029;-70
2022/05/20 13:10:46;;;;;;;3.63;1.05;;;22.00;52.10;;;;;;6237319;28;20127;-68
2022/05/20 13:13:52;;;;;;;2.92;1.13;;;22.00;51.90;;;;;;6244300;28;20064;-68
2022/05/20 13:16:56;;;;;;;0.85;0.80;;;22.00;52.00;;;;;;6244431;28;20370;-68
2022/05/20 13:19:58;;;;;;;1.70;1.20;;;22.00;52.00;;;;;;6244516;28;20029;-67
2022/05/20 13:23:01;;;;;;;3.08;1.35;;;22.00;52.00;;;;;;6227883;28;20412;-67
2022/05/20 13:26:02;;;;;;;1.10;1.00;;;22.00;51.90;;;;;;6218966;28;20669;-67
2022/05/20 13:29:11;;;;;;;2.05;1.10;;;22.00;52.00;;;;;;6219732;28;20481;-67
2022/05/20 13:32:18;;;;;;;1.38;0.90;;;22.00;51.90;;;;;;6222718;28;20592;-67
2022/05/20 13:35:19;;;;;;;2.05;1.10;;;22.00;52.00;;;;;;6205785;28;20021;-67
2022/05/20 13:38:25;;;;;;;0.82;0.70;;;22.00;51.90;;;;;;6223022;28;20033;-67
2022/05/20 13:41:30;;;;;;;1.35;1.02;;;22.00;52.00;;;;;;6205591;28;20025;-67
2022/05/20 13:44:30;;;;;;;2.05;1.10;;;22.00;51.90;;;;;;6223421;28;20030;-68
2022/05/20 13:50:51;;;;;;;1.42;0.98;;;22.00;51.90;;;;;;6257932;28;20025;-67
2022/05/20 13:53:52;;;;;;;1.10;0.90;;;22.00;51.90;;;;;;6247678;28;20025;-67
2022/05/20 13:56:55;;;;;;;1.73;1.00;;;22.00;51.90;;;;;;6248718;28;20028;-70
2022/05/20 13:59:59;;;;;;;1.20;0.90;;;22.00;51.90;;;;;;6230411;28;20030;-71
2022/05/20 14:03:03;;;;;;;1.30;1.02;;;22.00;51.80;;;;;;6247135;28;20026;-70
2022/05/20 14:06:12;;;;;;;1.70;0.85;;;22.00;52.50;;;;;;6247870;28;20129;-70
2022/05/20 14:09:13;;;;;;;1.25;0.93;;;22.10;51.90;;;;;;6252888;28;20056;-71
2022/05/20 14:12:17;;;;;;;1.02;0.88;;;22.00;51.80;;;;;;6247139;28;20040;-71
2022/05/20 14:15:46;;;;;;;1.05;0.90;;;22.00;51.80;;;;;;6240924;28;20437;-70
2022/05/20 14:18:57;;;;;;;0.85;0.85;;;22.00;51.80;;;;;;6245845;28;20040;-71
2022/05/20 14:22:03;;;;;;;1.10;0.98;;;22.00;51.80;;;;;;6246204;28;20029;-71
2022/05/20 14:25:18;;;;;;;0.80;0.80;;;22.00;51.90;;;;;;6228825;28;20665;-70
2022/05/20 14:28:22;;;;;;;1.07;0.90;;;22.00;51.90;;;;;;6221594;28;20453;-70
2022/05/20 14:31:33;;;;;;;1.67;1.10;;;22.00;51.90;;;;;;6236742;28;20022;-70
2022/05/20 14:34:40;;;;;;;0.82;0.80;;;22.00;51.90;;;;;;6221268;28;20022;-70
2022/05/20 14:37:41;;;;;;;0.82;0.80;;;22.00;51.90;;;;;;6221733;28;20057;-70
2022/05/20 14:40:42;;;;;;;0.95;0.90;;;22.00;52.00;;;;;;6203289;28;20086;-71
2022/05/20 14:43:56;;;;;;;1.20;0.82;;;21.90;51.90;;;;;;6204400;28;20048;-70
2022/05/20 14:47:16;;;;;;;1.00;0.90;;;21.90;51.80;;;;;;6204351;28;20026;-71
2022/05/20 14:50:23;;;;;;;1.33;1.00;;;21.90;51.90;;;;;;6231459;28;20034;-70
2022/05/20 14:53:39;;;;;;;1.10;1.00;;;21.90;51.90;;;;;;6246321;28;20590;-70
2022/05/20 14:56:44;;;;;;;0.90;0.90;;;21.90;51.90;;;;;;6235146;28;20017;-71
2022/05/20 15:00:06;;;;;;;1.60;1.05;;;21.90;51.90;;;;;;6222869;28;20393;-70
2022/05/20 15:03:07;;;;;;;1.38;0.98;;;21.90;51.90;;;;;;6228363;28;20048;-71
2022/05/20 15:06:19;;;;;;;0.90;0.88;;;21.90;51.90;;;;;;6241999;28;20057;-71
2022/05/20 15:09:28;;;;;;;3.42;1.10;;;21.90;52.00;;;;;;6228393;28;20033;-70
2022/05/20 15:12:29;;;;;;;1.20;1.02;;;21.90;51.90;;;;;;6245659;28;20025;-70
2022/05/20 15:15:31;;;;;;;1.60;1.00;;;21.90;51.90;;;;;;6245927;28;20028;-71
2022/05/20 15:18:32;;;;;;;1.10;1.00;;;21.90;51.90;;;;;;6242980;28;20480;-70
2022/05/20 15:21:34;;;;;;;0.80;0.77;;;21.90;51.90;;;;;;6265364;28;20029;-70
2022/05/20 15:24:35;;;;;;;1.08;0.90;;;21.90;51.90;;;;;;6246111;28;20455;-71
2022/05/20 15:27:38;;;;;;;0.82;0.80;;;21.90;51.90;;;;;;6245464;28;20029;-70
2022/05/20 15:30:39;;;;;;;1.63;0.90;;;21.90;51.90;;;;;;6243900;28;20029;-71
2022/05/20 15:37:13;;;;;;;1.13;1.00;;;21.90;51.90;;;;;;6245531;28;20034;-71
2022/05/20 15:40:26;;;;;;;1.02;0.80;;;21.90;51.90;;;;;;6269645;28;20100;-70
2022/05/20 15:43:26;;;;;;;1.35;1.00;;;21.90;51.90;;;;;;6249844;28;20057;-72
2022/05/20 15:46:27;;;;;;;1.10;1.00;;;21.90;52.00;;;;;;6270451;28;20070;-71
2022/05/20 15:49:28;;;;;;;1.23;0.80;;;21.90;52.00;;;;;;6268953;28;20155;-72
2022/05/20 15:52:34;;;;;;;1.00;0.90;;;21.90;51.90;;;;;;6245268;28;20017;-72
2022/05/20 15:55:38;;;;;;;0.82;0.82;;;21.90;51.90;;;;;;6269873;28;20531;-71
2022/05/20 15:58:39;;;;;;;0.80;0.80;;;21.90;51.90;;;;;;6252304;28;20025;-70
2022/05/20 16:01:40;;;;;;;0.70;0.70;;;22.00;51.90;;;;;;6270221;28;20369;-72
2022/05/20 16:04:41;;;;;;;1.20;1.10;;;21.90;51.90;;;;;;6269916;28;20025;-71
2022/05/20 16:07:43;;;;;;;1.63;1.08;;;21.90;51.90;;;;;;6268792;28;20071;-71
2022/05/20 16:10:52;;;;;;;1.70;1.00;;;22.00;52.00;;;;;;6269671;28;20044;-72
2022/05/20 16:13:55;;;;;;;1.02;0.90;;;21.90;52.00;;;;;;6244267;28;20037;-71
2022/05/20 16:16:57;;;;;;;1.00;0.93;;;21.90;52.00;;;;;;6258813;28;20141;-70
2022/05/20 16:19:57;;;;;;;1.20;0.88;;;21.90;52.10;;;;;;6224300;28;20075;-68
2022/05/20 16:22:59;;;;;;;2.45;0.80;;;21.90;52.10;;;;;;6241959;28;20388;-69
2022/05/20 16:26:00;;;;;;;0.85;0.77;;;21.90;52.10;;;;;;6219121;28;20087;-70
2022/05/20 16:29:01;;;;;;;0.82;0.82;;;21.90;52.10;;;;;;6217170;28;20022;-71
2022/05/20 16:32:02;;;;;;;1.10;0.82;;;21.90;52.60;;;;;;6225090;28;20135;-70
2022/05/20 16:35:03;;;;;;;0.98;0.80;;;21.90;52.40;;;;;;6244738;28;20018;-71
2022/05/20 16:38:09;;;;;;;0.98;0.88;;;21.90;52.40;;;;;;6224562;28;20021;-71
2022/05/20 16:41:12;;;;;;;1.33;1.05;;;21.90;52.40;;;;;;6224220;28;20079;-71
2022/05/20 16:44:13;;;;;;;0.93;0.90;;;21.80;52.40;;;;;;6242729;28;20037;-73
2022/05/20 16:47:15;;;;;;;0.82;0.75;;;21.80;52.40;;;;;;6242386;28;20049;-72
2022/05/20 16:50:17;;;;;;;1.08;0.85;;;21.80;52.40;;;;;;6242186;28;20099;-71
2022/05/20 16:53:24;;;;;;;0.88;0.77;;;21.80;52.40;;;;;;6242229;28;20029;-72